LFRSLFRT

Guest
Details From LFRS - Nantes_Atlantique
To LFRT - Saint Brieuc Armor
Flight Number -
Tags generated
Created
Modified
Stats Distance 97 nm / 180 km
Max Altitude 100 ft / 30 m
Waypoints 3
Social Downloads 0
Likes 0
Share VATSIM

Download

Looking for another format? Having issues loading an existing format? Contact us
Advertisement - Login to hide

Notes

Basic altitude profile: - Ascent Rate: 2500ft/min - Ascent Speed: 250kts - Cruise Altitude: 35000ft - Cruise Speed: 420kts - Descent Rate: 1500ft/min - Descent Speed: 250kts

Route

LFRS NTS LFRT

ID Type Via Altitude Latitude Longitude Leg Dist Tot Dist Heading (true) Name
O LFRS APT - 0 ft / 0 m 47.15604˚ -1.61119˚ - 0 nm - Nantes_Atlantique
NTS VOR - 100 ft / 30 m 47.16086˚ -1.61296˚ 0 nm 0 nm 346° / 346° NANTES ATLANTIQUE VOR-DME
O LFRT APT - 0 ft / 0 m 48.53827˚ -2.85461˚ 96 nm 96 nm 329° / 328° Saint Brieuc Armor

Altitude Profile

Advertisement - Login to hide

LFRS

Details ICAO LFRS (NTE)
Name Nantes_Atlantique
Region France
Timezone Europe/Paris (UTC+2.0)
Stats Elevation 89 ft / 27 m (AMSL)
Location 47.156040° -1.611186°
Runways 2
Magnetic Variation 0.452° W

METAR

LFRS 221030Z AUTO 36005KT 320V040 CAVOK 21/13 Q1014 NOSIG

Decode

TAF

TAF LFRS 220500Z 2206/2312 36005KT CAVOK PROB30 TEMPO 2206/2208 4000 BR PROB30 TEMPO 2214/2218 -SHRA SCT050TCU

Decode

Departure Runways

ID Width Length Bearing (true) Bearing (mag) Surface Threshold Offset Overrun Length
03 148 ft / 45 m 9,526 ft / 2,903 m 27.35° 27.80° Asphalt 0 ft / 0 m 0 ft / 0 m
13 100 ft / 30 m 1,999 ft / 609 m 125.55° 126.00° Concrete 0 ft / 0 m 0 ft / 0 m
21 148 ft / 45 m 9,526 ft / 2,903 m 207.37° 207.82° Asphalt 689 ft / 210 m 0 ft / 0 m
31 100 ft / 30 m 1,999 ft / 609 m 305.56° 306.01° Concrete 0 ft / 0 m 0 ft / 0 m

LFRT

Details ICAO LFRT (SBK)
Name Saint Brieuc Armor
Region France
Timezone Europe/Paris (UTC+2.0)
Stats Elevation 452 ft / 138 m (AMSL)
Location 48.538265° -2.854612°
Runways 1
Magnetic Variation 0.991° W

METAR

LFRT 221030Z AUTO 04008KT 010V070 CAVOK 17/12 Q1016

Decode

TAF

Not found

Destination Runways

ID Width Length Bearing (true) Bearing (mag) Surface Threshold Offset Overrun Length
06 148 ft / 45 m 7,214 ft / 2,199 m 58.77° 59.76° Asphalt 0 ft / 0 m 0 ft / 0 m
24 148 ft / 45 m 7,214 ft / 2,199 m 238.79° 239.78° Asphalt 0 ft / 0 m 0 ft / 0 m

Approach Navaids

Runway Type Ident Frequency Range Bearing (true) Bearing (mag) Slope Elevation
24 Localiser SB 109.95 MHz 18 nm / 33 km 238.78° 239.77° - 452 ft / 138 m (AMSL)
24 Glidescope SB 109.95 MHz 10 nm / 19 km 238.78° 239.77° 3.00° 452 ft / 138 m (AMSL)

Popular Alternatives